Seymour Johnson Air Force Base
KGSB : now visible

Airfield :











YOU CAN JOIN US ON...

 
LOGIN :

Register | Disclaimer

   EN    FR    IT 

 









Legend :    VFR   Marginal VFR   IFR   Intensive IFR   Very Intensive IFR
Visi :
Ceiling :
>= 8 km
>= 3000ft
5 to 8 km
1000 to 3000 ft
1500m to 5 km
500 to 1000 ft
800 to 1500m
200 to 500 ft
< 800m
< 200 ft
Symbols :   Thunderstorms  Fog  Heavy snow  Heavy precipitations  Wind > 20 kt






- Airport Elevation : 109 ft


KGSB - Seymour Johnson Air Force Base

CURRENT METAR :
  • 200356Z AUTO 04006KT 10SM OVC070 09/01 A3039 RMK AO2 SLPNO T00850005 $

EXPIRED METARs :
  • 200256Z AUTO 03005KT 10SM OVC070 09/01 A3040 RMK AO2 SLPNO T00850007 50010 $
  • 200156Z AUTO 03005KT 10SM BKN070 09/01 A3038 RMK AO2 SLPNO T00860008 $

TAF TAF KGSB
Valid from the 19 at 21:00 until the 21 at 03:00 UTC


192113Z 1921/2103 05010G15KT 9999 BKN055 OVC070 QNH3032INS
BECMG 1922/1923 06007KT 9999 BKN050 OVC065 QNH3033INS
BECMG 2014/2015 07012KT 9000 -SHRA BKN030 OVC050 QNH3032INS
BECMG 2016/2017 05012G18KT 8000 -SHRA BR OVC010 QNH3027INS
BECMG 2021/2022 03012G22KT 2400 -SN OVC005 620057 QNH3026INS
BECMG 2101/2102 01015G25KT 0800 SN OVC003 650039 QNH3029INS TX10/1921Z TN03/2010Z



MET'MAP, your aeronautical weather chart ! - Copyright ORBIFLY December 2007 - Disclaimer

ORBIFLY MET'MAP TEAM :

Programming & Development : Alexandra Zaïnal
Concept & original design : Baudouin d'Aumeries
Assistance for programming : Marc-Olivier Méhu
Technical & hardware support : Manuel Goepfert

Contact : metmap@orbifly.com




SOURCES & CREDITS :

   NOAA       Earth
Advisory